Latest Weather Observations for Lockhart River

IDQ60801

Issued at 4:05 pm EST Sunday 21 September 2014 (issued every 30 minutes, with the page automatically refreshed every 10 minutes)

About weather observations | Map of weather stations | Latest weather observations for QLD | Other Formats
Station Details ID: 028008 Name: LOCKHART RIVER AIRPORT Lat: -12.79 Lon: 143.30 Height: 18.5 m
Data from the previous 72 hours. | See also: Recent months at Lockhart River
Date/Time
EST
Temp
°C
App
Temp
°C
Dew
Point
Rel
Hum
%
Delta-T
°C
Wind Press
QNH
hPa
Press
MSL
hPa
Rain
since 9 am
mm
Dir
 
Spd
km/h
Gust
km/h
Spd
kts
Gust
kts
21/04:00pm 26.6 26.1 19.0 63 4.9 SE 20 32 11 17 1013.5 - 0.0
21/03:30pm 26.8 25.8 18.9 62 5.1 ESE 22 32 12 17 1013.3 - 0.0
21/03:00pm 26.9 25.0 18.5 60 5.4 SE 26 37 14 20 1013.5 1013.4 0.0
21/02:30pm 27.3 25.9 18.9 60 5.4 SE 24 33 13 18 1013.7 - 0.0
21/02:00pm 27.1 25.4 18.9 61 5.3 ESE 26 35 14 19 1013.9 - 0.0
21/01:30pm 28.2 26.6 19.1 57 5.9 ESE 26 35 14 19 1014.5 - 0.0
21/01:00pm 27.7 25.6 19.0 59 5.6 ESE 28 39 15 21 1014.8 - 0.0
21/12:30pm 28.2 26.9 19.1 57 5.9 ESE 24 32 13 17 1015.2 - 0.0
21/12:00pm 27.5 25.6 19.3 61 5.3 ESE 28 39 15 21 1015.7 1015.6 0.0
21/11:30am 26.7 25.1 19.1 63 4.9 ESE 26 39 14 21 1016.0 - 0.0
21/11:00am 26.7 25.9 19.3 64 4.8 ESE 22 37 12 20 1016.4 - 0.0
21/10:30am 26.7 25.8 19.1 63 4.9 ESE 22 32 12 17 1016.8 - 0.0
21/10:00am 26.4 25.8 19.8 67 4.3 ESE 22 33 12 18 1016.8 - 0.0
21/09:30am 26.1 25.5 19.7 68 4.1 ESE 22 32 12 17 1016.7 - 0.0
21/09:00am 25.6 24.4 19.3 68 4.0 SE 24 33 13 18 1016.5 1016.4 0.0
21/08:30am 25.4 24.8 19.8 71 3.6 SE 22 33 12 18 1016.3 - 0.0
21/08:00am 25.2 24.2 19.6 71 3.6 ESE 24 32 13 17 1015.6 - 0.0
21/07:30am 24.7 25.7 20.2 76 2.9 ESE 15 20 8 11 1014.9 - 0.0
21/07:00am 24.0 25.2 19.9 78 2.6 ESE 13 20 7 11 1014.6 - 0.0
21/06:30am 23.8 24.6 19.9 79 2.5 ESE 15 19 8 10 1014.0 - 0.0
21/06:00am 23.9 24.8 20.0 79 2.5 SE 15 19 8 10 1013.8 1013.7 0.0
21/05:30am 23.8 24.6 19.9 79 2.5 SE 15 20 8 11 1013.5 - 0.0
21/05:00am 23.7 24.9 20.0 80 2.4 ESE 13 20 7 11 1013.1 - 0.0
21/04:30am 23.8 24.2 19.9 79 2.5 SE 17 20 9 11 1012.8 - 0.0
21/04:00am 23.8 24.5 19.7 78 2.6 ESE 15 20 8 11 1012.7 - 0.0
21/03:30am 23.9 23.9 19.8 78 2.6 SE 19 26 10 14 1012.8 - 0.0
21/03:00am 24.0 24.9 20.1 79 2.5 SE 15 19 8 10 1013.0 1012.9 0.0
21/02:30am 23.9 24.8 20.0 79 2.5 ESE 15 24 8 13 1013.2 - 0.0
21/02:00am 23.9 24.8 20.0 79 2.5 ESE 15 24 8 13 1013.5 - 0.0
21/01:30am 23.8 25.0 19.9 79 2.5 ESE 13 17 7 9 1013.8 - 0.0
21/01:00am 23.8 25.0 19.9 79 2.5 ESE 13 19 7 10 1014.1 - 0.0
21/12:30am 23.8 24.6 19.9 79 2.5 SE 15 20 8 11 1014.3 - 0.0
21/12:00am 23.8 24.5 19.7 78 2.6 SE 15 20 8 11 1014.7 1014.6 0.0
 
Date/Time
EST
Temp
°C
App
Temp
°C
Dew
Point
Rel
Hum
%
Delta-T
°C
Wind Press
QNH
hPa
Press
MSL
hPa
Rain
since 9 am
mm
Dir
 
Spd
km/h
Gust
km/h
Spd
kts
Gust
kts
20/11:30pm 24.0 24.8 19.9 78 2.6 SE 15 22 8 12 1015.1 - 0.0
20/11:00pm 24.1 24.9 19.8 77 2.8 ESE 15 19 8 10 1015.3 - 0.0
20/10:30pm 24.2 25.1 20.1 78 2.7 SE 15 24 8 13 1015.4 - 0.0
20/10:00pm 24.1 25.0 20.0 78 2.7 ESE 15 20 8 11 1015.4 - 0.0
20/09:30pm 24.0 24.8 19.9 78 2.6 ESE 15 19 8 10 1015.5 - 0.0
20/09:00pm 24.1 24.9 19.8 77 2.8 SE 15 19 8 10 1015.4 1015.3 0.0
20/08:30pm 24.1 24.9 19.8 77 2.8 SE 15 20 8 11 1015.2 - 0.0
20/08:00pm 24.1 24.9 19.8 77 2.8 ESE 15 20 8 11 1015.0 - 0.0
20/07:30pm 24.2 24.9 19.7 76 2.9 ESE 15 20 8 11 1014.7 - 0.0
20/07:00pm 24.5 24.9 19.8 75 3.0 SE 17 24 9 13 1014.2 - 0.0
20/06:30pm 24.7 25.0 19.5 73 3.3 ESE 17 24 9 13 1014.1 - 0.0
20/06:00pm 25.0 24.7 19.1 70 3.8 ESE 19 26 10 14 1013.7 1013.6 0.0
20/05:30pm 25.8 25.4 19.0 66 4.4 ESE 19 30 10 16 1013.4 - 0.0
20/05:00pm 26.3 25.5 19.2 65 4.6 ESE 22 33 12 18 1013.2 - 0.0
20/04:30pm 27.0 26.3 18.6 60 5.4 ESE 20 32 11 17 1012.9 - 0.0
20/04:00pm 27.0 25.4 18.3 59 5.5 ESE 24 35 13 19 1012.8 - 0.0
20/03:30pm 27.8 26.3 18.5 57 5.9 ESE 24 37 13 20 1012.7 - 0.0
20/03:00pm 28.0 25.9 18.1 55 6.3 ESE 26 37 14 20 1012.9 1012.8 0.0
20/02:30pm 28.3 25.6 17.5 52 6.8 SE 28 39 15 21 1013.0 - 0.0
20/02:00pm 29.1 26.9 17.9 50 7.1 ESE 26 35 14 19 1013.2 - 0.0
20/01:30pm 29.2 27.3 18.6 52 6.8 ESE 26 41 14 22 1013.4 - 0.0
20/01:00pm 29.6 28.0 18.4 51 7.2 ESE 24 33 13 18 1013.7 - 0.0
20/12:30pm 29.9 28.7 19.3 53 6.9 ESE 24 35 13 19 1014.1 - 0.0
20/12:15pm 28.6 26.5 19.0 56 6.2 ESE 28 48 15 26 1014.3 - 0.0
20/12:00pm 27.9 26.0 18.6 57 6.0 ESE 26 39 14 21 1014.4 1014.3 0.0
20/11:30am 28.1 26.8 19.1 58 5.8 ESE 24 37 13 20 1014.9 - 0.0
20/11:00am 28.0 25.4 18.7 57 6.0 SE 30 39 16 21 1015.3 - 0.0
20/10:30am 27.7 25.9 18.7 58 5.8 SE 26 39 14 21 1015.7 - 0.0
20/10:00am 28.1 26.7 19.6 60 5.5 SE 26 39 14 21 1016.0 - 0.0
20/09:30am 27.0 25.9 19.4 63 4.9 ESE 24 33 13 18 1015.9 - 0.0
20/09:00am 26.1 25.2 19.0 65 4.5 SE 22 32 12 17 1015.9 1015.8 0.0
20/08:30am 25.2 26.0 19.8 72 3.5 SE 15 26 8 14 1015.7 - 0.0
20/08:00am 22.9 26.1 20.4 86 1.6 SSE 4 15 2 8 1015.6 - 0.0
20/07:30am 19.9 23.2 19.1 95 0.5 CALM 0 0 0 0 1015.4 - 0.0
20/07:00am 18.7 21.4 17.7 94 0.6 CALM 0 0 0 0 1014.9 - 0.0
20/06:30am 17.8 20.1 16.7 93 0.7 CALM 0 0 0 0 1014.3 - 0.0
20/06:00am 18.0 20.4 16.9 93 0.7 CALM 0 0 0 0 1014.0 1013.9 0.0
20/05:30am 18.1 20.4 16.8 92 0.8 CALM 0 0 0 0 1013.7 - 0.0
20/05:00am 18.6 21.0 17.1 91 0.9 CALM 0 0 0 0 1013.6 - 0.0
20/04:30am 19.2 21.7 17.2 88 1.2 CALM 0 0 0 0 1013.6 - 0.0
20/04:00am 20.2 22.0 18.3 89 1.2 S 6 7 3 4 1013.6 - 0.0
20/03:30am 21.3 22.6 18.5 84 1.8 SSE 9 13 5 7 1013.6 - 0.0
20/03:00am 22.3 23.6 19.3 83 1.9 SE 11 13 6 7 1013.8 1013.7 0.0
20/02:30am 22.5 24.2 19.3 82 2.0 SE 9 11 5 6 1014.1 - 0.0
20/02:00am 22.8 24.1 19.4 81 2.2 ESE 11 17 6 9 1014.3 - 0.0
20/01:30am 23.0 24.2 19.8 82 2.1 ESE 13 20 7 11 1014.7 - 0.0
20/01:00am 21.5 23.5 19.1 86 1.5 S 7 9 4 5 1015.3 - 0.0
20/12:30am 22.3 23.7 18.7 80 2.3 S 9 13 5 7 1015.6 - 0.0
20/12:00am 23.5 24.3 19.0 76 2.9 ESE 13 19 7 10 1015.8 1015.7 0.0
 
Date/Time
EST
Temp
°C
App
Temp
°C
Dew
Point
Rel
Hum
%
Delta-T
°C
Wind Press
QNH
hPa
Press
MSL
hPa
Rain
since 9 am
mm
Dir
 
Spd
km/h
Gust
km/h
Spd
kts
Gust
kts
19/11:30pm 23.7 24.6 19.2 76 2.9 ESE 13 19 7 10 1016.1 - 0.0
19/11:00pm 23.6 24.5 19.3 77 2.7 SE 13 17 7 9 1016.4 - 0.0
19/10:30pm 23.4 24.4 19.5 79 2.5 SE 13 17 7 9 1016.3 - 0.0
19/10:00pm 22.1 24.2 19.3 84 1.8 S 7 9 4 5 1016.4 - 0.0
19/09:30pm 22.2 23.8 19.2 83 1.9 S 9 11 5 6 1016.2 - 0.0
19/09:00pm 23.5 24.4 19.2 77 2.7 SSE 13 17 7 9 1016.2 1016.1 0.0
19/08:30pm 23.2 24.5 19.4 79 2.4 SSE 11 15 6 8 1015.9 - 0.0
19/08:00pm 23.4 24.6 19.1 77 2.7 SSE 11 17 6 9 1015.4 - 0.0
19/07:30pm 23.9 25.2 19.2 75 3.0 SE 11 19 6 10 1015.0 - 0.0
19/07:00pm 24.3 24.2 18.7 71 3.6 SE 17 22 9 12 1014.6 - 0.0
19/06:30pm 24.4 25.0 18.6 70 3.7 ESE 13 20 7 11 1014.3 - 0.0
19/06:00pm 25.3 25.2 18.7 67 4.2 SE 17 20 9 11 1013.9 1013.8 0.0
19/05:30pm 25.8 25.0 18.5 64 4.6 ESE 20 30 11 16 1013.6 - 0.0
19/05:00pm 25.9 25.0 18.3 63 4.8 ESE 20 24 11 13 1013.4 - 0.0
19/04:30pm 26.9 26.0 18.2 59 5.5 ESE 20 32 11 17 1013.2 - 0.0
19/04:00pm 27.6 26.1 18.6 58 5.8 SE 24 35 13 19 1013.0 - 0.0
19/03:30pm 27.3 26.5 18.0 56 5.9 E 19 28 10 15 1013.0 - 0.0
19/03:00pm 27.7 25.6 18.1 56 6.1 ESE 26 35 14 19 1013.5 1013.4 0.0
19/02:30pm 27.2 24.9 17.7 56 6.0 ESE 26 37 14 20 1013.7 - 0.0
19/02:00pm 27.3 26.7 18.9 60 5.4 E 20 28 11 15 1014.2 - 0.0
19/01:30pm 28.0 26.7 19.0 58 5.8 E 24 37 13 20 1014.7 - 0.0
19/01:00pm 27.5 26.0 18.5 58 5.8 E 24 33 13 18 1015.2 - 0.0
19/12:30pm 27.5 25.1 18.2 57 5.9 ESE 28 43 15 23 1015.6 - 0.0
19/12:00pm 27.6 25.3 17.7 54 6.2 ESE 26 39 14 21 1015.8 1015.7 0.0
19/11:30am 27.5 25.8 18.2 57 5.9 ESE 24 35 13 19 1016.1 - 0.0
19/11:00am 27.8 26.6 18.5 57 5.9 ESE 22 35 12 19 1016.4 - 0.0
19/10:30am 27.0 25.6 18.0 58 5.7 ESE 22 41 12 22 1016.6 - 0.0
19/10:00am 26.4 25.8 18.8 63 4.9 ESE 20 30 11 16 1016.8 - 0.0
19/09:30am 25.8 25.9 19.9 70 3.8 SE 19 26 10 14 1016.9 - 0.0
19/09:00am 24.2 25.6 19.5 75 3.0 SE 11 17 6 9 1016.9 1016.8 0.0
19/08:30am 21.5 23.9 19.6 89 1.2 SSE 6 13 3 7 1016.6 - 0.0
19/08:00am 19.2 22.2 18.4 95 0.5 CALM 0 0 0 0 1016.3 - 0.0
19/07:30am 17.2 19.4 16.6 96 0.4 CALM 0 0 0 0 1016.0 - 0.0
19/07:00am 16.0 17.8 15.4 96 0.3 CALM 0 0 0 0 1015.4 - 0.0
19/06:30am 15.0 16.3 14.0 94 0.6 CALM 0 0 0 0 1015.0 - 0.0
19/06:13am 15.1 16.4 14.1 94 0.6 CALM 0 0 0 0 1014.9 - 0.0
19/06:00am 15.4 16.9 14.6 95 0.5 CALM 0 0 0 0 1014.7 1014.6 0.0
19/05:51am 15.3 16.7 14.5 95 0.5 CALM 0 0 0 0 1014.6 - 0.0
19/05:30am 15.1 16.5 14.3 95 0.5 CALM 0 0 0 0 1014.5 - 0.0
19/05:00am 15.6 17.2 14.8 95 0.5 CALM 0 0 0 0 1014.2 - 0.0
19/04:30am 15.4 16.8 14.4 94 0.6 CALM 0 0 0 0 1014.1 - 0.0
19/04:00am 15.9 17.6 15.1 95 0.5 CALM 0 0 0 0 1013.9 - 0.0
19/03:30am 16.0 17.7 15.2 95 0.5 CALM 0 0 0 0 1014.0 - 0.0
19/03:00am 16.2 17.9 15.2 94 0.6 CALM 0 0 0 0 1014.2 1014.1 0.0
19/02:30am 16.1 17.8 15.3 95 0.5 CALM 0 0 0 0 1014.3 - 0.0
19/02:00am 16.3 18.1 15.5 95 0.5 CALM 0 0 0 0 1014.6 - 0.0
19/01:30am 16.6 18.4 15.6 94 0.6 CALM 0 0 0 0 1015.1 - 0.0
19/01:00am 16.8 18.7 15.8 94 0.6 CALM 0 0 0 0 1015.5 - 0.0
19/12:54am 16.7 18.6 15.7 94 0.6 CALM 0 0 0 0 1015.6 - 0.0
19/12:42am 16.8 18.7 15.7 93 0.6 CALM 0 0 0 0 1015.7 - 0.0
19/12:30am 17.2 19.3 16.2 94 0.6 CALM 0 0 0 0 1016.0 - 0.0
19/12:00am 17.2 19.3 16.2 94 0.6 CALM 0 0 0 0 1016.2 1016.1 0.0
 
Date/Time
EST
Temp
°C
App
Temp
°C
Dew
Point
Rel
Hum
%
Delta-T
°C
Wind Press
QNH
hPa
Press
MSL
hPa
Rain
since 9 am
mm
Dir
 
Spd
km/h
Gust
km/h
Spd
kts
Gust
kts
18/11:30pm 17.4 19.5 16.3 93 0.7 CALM 0 0 0 0 1016.4 - 0.0
18/11:00pm 17.8 20.0 16.5 92 0.8 CALM 0 0 0 0 1016.5 - 0.0
18/10:30pm 18.5 21.0 17.2 92 0.8 CALM 0 0 0 0 1016.6 - 0.0
18/10:00pm 18.6 21.1 17.3 92 0.8 CALM 0 0 0 0 1016.8 - 0.0
18/09:30pm 19.2 21.8 17.5 90 1.0 CALM 0 0 0 0 1016.5 - 0.0
18/09:00pm 19.4 22.0 17.5 89 1.2 CALM 0 0 0 0 1016.3 1016.2 0.0
18/08:30pm 20.8 23.4 17.6 82 2.0 CALM 0 0 0 0 1015.9 - 0.0
18/08:00pm 21.9 23.6 18.1 79 2.4 SSE 6 7 3 4 1015.5 - 0.0
18/07:30pm 22.9 24.3 18.7 77 2.7 SE 9 13 5 7 1015.2 - 0.0
18/07:00pm 23.6 23.4 18.5 73 3.2 SE 17 22 9 12 1014.8 - 0.0
18/06:30pm 24.0 23.8 18.4 71 3.5 ESE 17 26 9 14 1014.6 - 0.0
18/06:00pm 24.4 23.6 18.1 68 4.0 ESE 19 24 10 13 1014.2 1014.1 0.0
18/05:30pm 25.0 24.1 18.2 66 4.3 ESE 20 28 11 15 1014.0 - 0.0
18/05:00pm 25.6 24.6 18.0 63 4.8 ESE 20 30 11 16 1013.9 - 0.0
18/04:30pm 26.1 25.4 18.2 61 5.0 ESE 19 30 10 16 1013.9 - 0.0

Other Formats:

Comma delimited format used in spreadsheet applications
http://www.bom.gov.au/fwo/IDQ60801/IDQ60801.94186.axf

JavaScript Object Notation format (JSON) in row-major order
http://www.bom.gov.au/fwo/IDQ60801/IDQ60801.94186.json